createdAt,value
2023-05-18T00:01:21.138Z,102228.41
2023-05-18T00:03:49.452Z,102232.63
2023-05-18T00:06:17.819Z,102237.00
2023-05-18T00:08:46.112Z,102214.94
2023-05-18T00:11:14.546Z,102238.00
2023-05-18T00:13:44.875Z,102240.69
2023-05-18T00:16:16.024Z,102241.66
2023-05-18T00:18:45.322Z,102242.59
2023-05-18T00:21:16.335Z,102239.94
2023-05-18T00:23:49.618Z,102245.19
2023-05-18T00:26:18.184Z,102241.63
2023-05-18T00:28:48.039Z,102246.94
2023-05-18T00:31:17.277Z,102250.47
2023-05-18T00:33:46.376Z,102253.88
2023-05-18T00:36:15.162Z,102256.53
2023-05-18T00:38:43.660Z,102249.44
2023-05-18T00:41:12.351Z,102257.41
2023-05-18T00:43:41.847Z,102252.16
2023-05-18T00:46:11.989Z,102258.41
2023-05-18T00:48:41.534Z,102253.13
2023-05-18T00:51:10.122Z,102246.88
2023-05-18T00:53:39.071Z,102255.69
2023-05-18T00:56:08.311Z,102250.50
2023-05-18T00:58:37.145Z,102267.25
2023-05-18T01:01:06.365Z,102262.94
2023-05-18T01:03:38.353Z,102259.41
2023-05-18T01:06:06.822Z,102259.31
2023-05-18T01:08:36.673Z,102264.63
2023-05-18T01:11:21.290Z,102265.53
2023-05-18T01:13:59.921Z,102268.19
2023-05-18T01:16:37.593Z,102273.44
2023-05-18T01:19:24.697Z,102262.84
2023-05-18T01:22:05.344Z,102271.56
2023-05-18T01:24:40.197Z,102267.06
2023-05-18T01:27:10.549Z,102260.91
2023-05-18T01:29:40.228Z,102269.72
2023-05-18T01:32:09.534Z,102267.16
2023-05-18T01:34:38.225Z,102273.31
2023-05-18T01:37:06.989Z,102273.31
2023-05-18T01:39:35.427Z,102245.03
2023-05-18T01:42:08.539Z,102282.25
2023-05-18T01:44:44.616Z,102286.63
2023-05-18T01:47:15.766Z,102289.41
2023-05-18T01:49:49.984Z,102285.81
2023-05-18T01:52:21.557Z,102293.78
2023-05-18T01:54:55.624Z,102288.53
2023-05-18T01:57:28.786Z,102275.31
2023-05-18T02:00:00.434Z,102295.63
2023-05-18T02:02:29.814Z,102296.47
2023-05-18T02:04:58.388Z,102285.91
2023-05-18T02:07:26.552Z,102294.66
2023-05-18T02:09:54.827Z,102294.53
2023-05-18T02:12:23.547Z,102296.19
2023-05-18T02:14:51.971Z,102301.47
2023-05-18T02:17:22.371Z,102296.22
2023-05-18T02:19:51.181Z,102294.53
2023-05-18T02:22:19.585Z,102297.22
2023-05-18T02:24:48.166Z,102298.03
2023-05-18T02:27:16.517Z,102290.03
2023-05-18T02:29:44.849Z,102297.94
2023-05-18T02:32:13.109Z,102303.25
2023-05-18T02:34:43.301Z,102296.22
2023-05-18T02:37:13.542Z,102301.22
2023-05-18T02:39:42.089Z,102298.63
2023-05-18T02:42:10.666Z,102299.63
2023-05-18T02:44:39.069Z,102300.44
2023-05-18T02:47:07.618Z,102306.59
2023-05-18T02:49:35.848Z,102301.22
2023-05-18T02:52:06.171Z,102297.69
2023-05-18T02:54:34.730Z,102311.66
2023-05-18T02:57:03.031Z,102318.53
2023-05-18T02:59:31.820Z,102316.66
2023-05-18T03:02:00.111Z,102321.97
2023-05-18T03:04:28.459Z,102313.22
2023-05-18T03:06:57.613Z,102323.00
2023-05-18T03:09:27.640Z,102323.81
2023-05-18T03:11:55.943Z,102325.59
2023-05-18T03:14:24.083Z,102319.44
2023-05-18T03:16:54.507Z,102327.47
2023-05-18T03:19:23.169Z,102326.44
2023-05-18T03:21:51.362Z,102325.50
2023-05-18T03:24:20.441Z,102329.03
2023-05-18T03:26:50.185Z,102335.97
2023-05-18T03:29:18.341Z,102321.84
2023-05-18T03:31:47.174Z,102335.91
2023-05-18T03:34:15.662Z,102334.38
2023-05-18T03:36:47.660Z,102308.72
2023-05-18T03:39:16.480Z,102331.94
2023-05-18T03:41:44.615Z,102341.59
2023-05-18T03:44:14.520Z,102343.34
2023-05-18T03:46:43.121Z,102346.81
2023-05-18T03:49:11.378Z,102321.88
2023-05-18T03:51:39.603Z,102338.94
2023-05-18T03:54:08.038Z,102338.94
2023-05-18T03:56:36.410Z,102345.06
2023-05-18T03:59:05.352Z,102341.31
2023-05-18T04:01:35.823Z,102342.16
2023-05-18T04:04:04.341Z,102341.31
2023-05-18T04:06:32.781Z,102341.31
2023-05-18T04:09:05.059Z,102355.50
2023-05-18T04:11:33.284Z,102357.34
2023-05-18T04:14:02.135Z,102359.22
2023-05-18T04:16:31.319Z,102357.44
2023-05-18T04:19:02.022Z,102359.22
2023-05-18T04:21:35.799Z,102363.66
2023-05-18T04:24:05.299Z,102359.34
2023-05-18T04:26:34.969Z,102354.19
2023-05-18T04:29:03.295Z,102357.59
2023-05-18T04:31:32.055Z,102358.50
2023-05-18T04:34:02.283Z,102364.72
2023-05-18T04:36:31.400Z,102343.47
2023-05-18T04:39:00.229Z,102377.25
2023-05-18T04:41:28.514Z,102377.31
2023-05-18T04:43:56.657Z,102375.56
2023-05-18T04:46:25.270Z,102379.09
2023-05-18T04:48:58.332Z,102381.66
2023-05-18T04:51:28.299Z,102372.09
2023-05-18T04:53:56.462Z,102377.41
2023-05-18T04:56:24.985Z,102384.53
2023-05-18T04:58:53.217Z,102394.13
2023-05-18T05:01:24.126Z,102390.59
2023-05-18T05:03:52.520Z,102388.13
2023-05-18T05:06:21.093Z,102377.53
2023-05-18T05:08:50.943Z,102382.91
2023-05-18T05:11:19.356Z,102379.34
2023-05-18T05:13:47.776Z,102324.31
2023-05-18T05:16:16.010Z,102390.72
2023-05-18T05:18:46.540Z,102390.00
2023-05-18T05:21:15.474Z,102400.81
2023-05-18T05:23:45.358Z,102399.16
2023-05-18T05:26:15.078Z,102407.78
2023-05-18T05:28:43.637Z,102404.44
2023-05-18T05:31:12.393Z,102406.28
2023-05-18T05:33:41.038Z,102416.84
2023-05-18T05:36:10.326Z,102416.91
2023-05-18T05:38:38.689Z,102418.59
2023-05-18T05:41:06.831Z,102415.06
2023-05-18T05:43:36.830Z,102427.41
2023-05-18T05:46:05.295Z,102430.13
2023-05-18T05:48:33.496Z,102436.34
2023-05-18T05:51:02.208Z,102435.53
2023-05-18T05:53:30.678Z,102444.38
2023-05-18T05:55:58.812Z,102429.31
2023-05-18T05:58:27.134Z,102452.38
2023-05-18T06:00:57.230Z,102436.28
2023-05-18T06:03:25.867Z,102457.66
2023-05-18T06:05:54.376Z,102461.25
2023-05-18T06:08:24.716Z,102473.63
2023-05-18T06:10:53.282Z,102466.50
2023-05-18T06:13:21.574Z,102466.59
2023-05-18T06:15:49.772Z,102475.41
2023-05-18T06:18:19.369Z,102480.81
2023-05-18T06:20:47.858Z,102459.59
2023-05-18T06:23:16.759Z,102484.50
2023-05-18T06:25:45.256Z,102485.31
2023-05-18T06:28:13.543Z,102486.25
2023-05-18T06:30:42.261Z,102464.09
2023-05-18T06:33:10.523Z,102486.28
2023-05-18T06:35:40.342Z,102493.25
2023-05-18T06:38:08.714Z,102489.81
2023-05-18T06:40:37.669Z,102491.66
2023-05-18T06:43:06.609Z,102507.59
2023-05-18T06:45:37.055Z,102501.41
2023-05-18T06:48:07.370Z,102511.09
2023-05-18T06:50:35.792Z,102510.28
2023-05-18T06:53:05.651Z,102512.91
2023-05-18T06:55:33.841Z,102505.84
2023-05-18T06:58:02.837Z,102514.69
2023-05-18T07:00:31.057Z,102512.84
2023-05-18T07:02:59.617Z,102532.34
2023-05-18T07:05:28.493Z,102528.75
2023-05-18T07:07:56.893Z,102532.34
2023-05-18T07:10:26.995Z,102535.94
2023-05-18T07:12:55.452Z,102534.16
2023-05-18T07:15:26.239Z,102534.16
2023-05-18T07:17:54.478Z,102534.19
2023-05-18T07:20:25.026Z,102534.19
2023-05-18T07:22:55.544Z,102534.19
2023-05-18T07:25:23.802Z,102543.00
2023-05-18T07:27:55.385Z,102549.22
2023-05-18T07:30:24.241Z,102522.56
2023-05-18T07:32:52.770Z,102541.19
2023-05-18T07:35:22.156Z,102553.59
2023-05-18T07:37:54.379Z,102557.22
2023-05-18T07:40:22.839Z,102556.34
2023-05-18T07:42:52.994Z,102557.28
2023-05-18T07:45:22.068Z,102556.38
2023-05-18T07:47:52.771Z,102560.63
2023-05-18T07:50:21.110Z,102546.44
2023-05-18T07:52:49.516Z,102566.00
2023-05-18T07:55:18.074Z,102567.50
2023-05-18T07:57:46.199Z,102561.97
2023-05-18T08:00:17.537Z,102578.84
2023-05-18T08:02:46.317Z,102579.97
2023-05-18T08:05:15.064Z,102578.63
2023-05-18T08:07:43.244Z,102582.16
2023-05-18T08:10:12.524Z,102566.53
2023-05-18T08:12:41.312Z,102590.78
2023-05-18T08:15:11.249Z,102588.84
2023-05-18T08:17:41.309Z,102587.41
2023-05-18T08:20:11.416Z,102596.66
2023-05-18T08:22:40.838Z,102591.59
2023-05-18T08:25:10.592Z,102598.59
2023-05-18T08:27:39.007Z,102587.09
2023-05-18T08:30:08.493Z,102593.19
2023-05-18T08:32:37.590Z,102597.63
2023-05-18T08:35:08.841Z,102595.00
2023-05-18T08:37:37.354Z,102594.81
2023-05-18T08:40:09.033Z,102589.41
2023-05-18T08:42:49.465Z,102595.00
2023-05-18T08:45:25.709Z,102601.03
2023-05-18T08:47:57.961Z,102602.72
2023-05-18T08:50:30.917Z,102601.06
2023-05-18T08:53:03.151Z,102597.72
2023-05-18T08:55:37.099Z,102589.72
2023-05-18T08:58:08.642Z,102609.00
2023-05-18T09:00:37.923Z,102605.94
2023-05-18T09:03:06.764Z,102603.84
2023-05-18T09:05:37.435Z,102594.16
2023-05-18T09:08:07.927Z,102605.81
2023-05-18T09:10:40.640Z,102530.72
2023-05-18T09:13:11.183Z,102598.66
2023-05-18T09:15:39.350Z,102610.88
2023-05-18T09:18:07.817Z,102619.75
2023-05-18T09:20:37.723Z,102617.06
2023-05-18T09:23:07.294Z,102614.09
2023-05-18T09:25:37.484Z,102616.75
2023-05-18T09:28:06.255Z,102615.72
2023-05-18T09:30:42.006Z,102617.34
2023-05-18T09:33:19.391Z,102622.84
2023-05-18T09:35:49.118Z,102621.09
2023-05-18T09:38:22.113Z,102621.34
2023-05-18T09:40:51.553Z,102611.47
2023-05-18T09:43:20.393Z,102623.25
2023-05-18T09:45:51.345Z,102615.25
2023-05-18T09:48:19.516Z,102624.88
2023-05-18T09:50:49.320Z,102623.16
2023-05-18T09:53:18.237Z,102632.03
2023-05-18T09:55:48.414Z,102627.00
2023-05-18T09:58:17.102Z,102636.28
2023-05-18T10:00:51.823Z,102642.03
2023-05-18T10:03:21.791Z,102649.06
2023-05-18T10:05:54.689Z,102653.25
2023-05-18T10:08:22.968Z,102660.38
2023-05-18T10:10:52.628Z,102654.38
2023-05-18T10:13:21.130Z,102659.69
2023-05-18T10:15:51.353Z,102659.50
2023-05-18T10:18:24.165Z,102666.53
2023-05-18T10:20:55.922Z,102658.03
2023-05-18T10:23:26.558Z,102661.81
2023-05-18T10:25:55.713Z,102635.09
2023-05-18T10:28:28.892Z,102641.31
2023-05-18T10:30:58.925Z,102660.75
2023-05-18T10:33:30.014Z,102668.56
2023-05-18T10:36:02.558Z,102666.63
2023-05-18T10:38:31.932Z,102673.63
2023-05-18T10:41:02.178Z,102680.94
2023-05-18T10:43:31.099Z,102677.41
2023-05-18T10:46:01.451Z,102675.69
2023-05-18T10:48:33.154Z,102673.94
2023-05-18T10:51:07.034Z,102667.59
2023-05-18T10:53:36.674Z,102673.91
2023-05-18T10:56:05.074Z,102671.41
2023-05-18T10:58:34.832Z,102676.72
2023-05-18T11:01:06.845Z,102672.34
2023-05-18T11:03:35.167Z,102677.59
2023-05-18T11:06:11.035Z,102683.66
2023-05-18T11:08:49.041Z,102653.78
2023-05-18T11:11:19.489Z,102677.84
2023-05-18T11:13:51.828Z,102676.91
2023-05-18T11:16:21.938Z,102681.34
2023-05-18T11:18:51.671Z,102677.72
2023-05-18T11:21:53.291Z,102683.03
2023-05-18T11:24:25.239Z,102678.47
2023-05-18T11:26:55.043Z,102675.94
2023-05-18T11:29:25.898Z,102683.03
2023-05-18T11:31:55.758Z,102677.72
2023-05-18T11:34:51.180Z,102680.47
2023-05-18T11:37:49.279Z,102682.13
2023-05-18T11:40:49.451Z,102687.38
2023-05-18T11:43:22.389Z,102691.69
2023-05-18T11:45:59.418Z,102688.31
2023-05-18T11:48:30.514Z,102691.91
2023-05-18T11:50:59.011Z,102692.88
2023-05-18T11:53:28.500Z,102672.41
2023-05-18T11:56:02.869Z,102690.06
2023-05-18T11:58:32.687Z,102688.31
2023-05-18T12:01:01.872Z,102697.19
2023-05-18T12:03:33.011Z,102688.38
2023-05-18T12:06:02.529Z,102693.47
2023-05-18T12:08:31.014Z,102693.53
2023-05-18T12:11:02.503Z,102691.59
2023-05-18T12:13:32.254Z,102699.66
2023-05-18T12:16:01.951Z,102703.25
2023-05-18T12:18:30.949Z,102693.50
2023-05-18T12:20:59.479Z,102703.25
2023-05-18T12:23:38.275Z,102705.91
2023-05-18T12:26:08.910Z,102713.13
2023-05-18T12:28:37.683Z,102704.25
2023-05-18T12:31:08.803Z,102718.47
2023-05-18T12:33:37.354Z,102716.66
2023-05-18T12:36:11.775Z,102723.72
2023-05-18T12:38:40.415Z,102717.59
2023-05-18T12:41:10.101Z,102714.84
2023-05-18T12:43:38.615Z,102714.97
2023-05-18T12:46:07.219Z,102722.03
2023-05-18T12:48:47.759Z,102722.78
2023-05-18T12:51:21.856Z,102722.06
2023-05-18T12:53:52.670Z,102727.34
2023-05-18T12:56:25.414Z,102729.09
2023-05-18T12:58:59.518Z,102725.50
2023-05-18T13:01:28.354Z,102723.81
2023-05-18T13:03:58.447Z,102720.13
2023-05-18T13:06:28.370Z,102728.91
2023-05-18T13:08:57.701Z,102728.84
2023-05-18T13:11:27.807Z,102727.09
2023-05-18T13:14:00.384Z,102728.19
2023-05-18T13:16:30.858Z,102730.66
2023-05-18T13:19:00.800Z,102743.19
2023-05-18T13:21:29.665Z,102722.59
2023-05-18T13:23:58.395Z,102731.31
2023-05-18T13:26:28.228Z,102712.00
2023-05-18T13:28:58.364Z,102730.47
2023-05-18T13:31:26.571Z,102732.44
2023-05-18T13:33:54.767Z,102735.81
2023-05-18T13:36:23.052Z,102737.91
2023-05-18T13:38:52.447Z,102746.78
2023-05-18T13:41:21.409Z,102736.13
2023-05-18T13:43:51.282Z,102732.53
2023-05-18T13:46:20.718Z,102736.09
2023-05-18T13:48:49.095Z,102741.44
2023-05-18T13:51:17.412Z,102732.56
2023-05-18T13:53:45.648Z,102737.88
2023-05-18T13:56:16.683Z,102739.69
2023-05-18T13:58:45.018Z,102738.75
2023-05-18T14:01:14.827Z,102744.88
2023-05-18T14:03:43.070Z,102739.59
2023-05-18T14:06:11.708Z,102742.41
2023-05-18T14:08:39.865Z,102744.94
2023-05-18T14:11:08.203Z,102752.09
2023-05-18T14:13:36.472Z,102746.78
2023-05-18T14:16:07.863Z,102743.28
2023-05-18T14:18:37.795Z,102737.94
2023-05-18T14:21:06.061Z,102743.28
2023-05-18T14:23:34.233Z,102742.41
2023-05-18T14:26:02.803Z,102739.75
2023-05-18T14:28:31.101Z,102742.47
2023-05-18T14:30:59.715Z,102750.34
2023-05-18T14:33:28.004Z,102746.78
2023-05-18T14:35:58.342Z,102738.72
2023-05-18T14:38:27.372Z,102741.41
2023-05-18T14:40:55.581Z,102748.59
2023-05-18T14:43:24.271Z,102749.41
2023-05-18T14:46:06.856Z,102744.13
2023-05-18T14:48:37.395Z,102754.75
2023-05-18T14:51:08.297Z,102746.91
2023-05-18T14:53:36.434Z,102749.56
2023-05-18T14:56:08.583Z,102746.88
2023-05-18T14:58:40.098Z,102757.59
2023-05-18T15:01:08.398Z,102758.44
2023-05-18T15:03:36.695Z,102755.84
2023-05-18T15:06:06.680Z,102750.53
2023-05-18T15:08:35.010Z,102751.41
2023-05-18T15:11:03.230Z,102760.34
2023-05-18T15:13:31.963Z,102756.72
2023-05-18T15:16:00.582Z,102759.41
2023-05-18T15:18:29.275Z,102736.38
2023-05-18T15:20:57.659Z,102752.16
2023-05-18T15:23:29.711Z,102753.94
2023-05-18T15:25:58.221Z,102762.94
2023-05-18T15:28:27.381Z,102754.00
2023-05-18T15:30:55.739Z,102760.31
2023-05-18T15:33:24.259Z,102750.50
2023-05-18T15:35:52.657Z,102762.09
2023-05-18T15:38:20.828Z,102755.00
2023-05-18T15:40:51.244Z,102758.53
2023-05-18T15:43:20.629Z,102749.66
2023-05-18T15:45:49.284Z,102750.53
2023-05-18T15:48:17.946Z,102760.28
2023-05-18T15:50:46.448Z,102755.81
2023-05-18T15:53:16.069Z,102753.19
2023-05-18T15:55:44.312Z,102756.72
2023-05-18T15:58:14.842Z,102763.88
2023-05-18T16:00:43.510Z,102761.22
2023-05-18T16:03:12.786Z,102734.56
2023-05-18T16:05:41.712Z,102759.41
2023-05-18T16:08:10.225Z,102763.00
2023-05-18T16:10:38.334Z,102764.72
2023-05-18T16:13:06.899Z,102768.28
2023-05-18T16:15:37.176Z,102763.84
2023-05-18T16:18:07.149Z,102768.31
2023-05-18T16:20:35.790Z,102764.75
2023-05-18T16:23:04.232Z,102767.41
2023-05-18T16:25:32.976Z,102770.06
2023-05-18T16:28:03.768Z,102771.84
2023-05-18T16:30:33.606Z,102771.88
2023-05-18T16:33:03.958Z,102749.66
2023-05-18T16:35:32.482Z,102766.50
2023-05-18T16:38:01.323Z,102769.13
2023-05-18T16:40:30.698Z,102777.13
2023-05-18T16:43:01.485Z,102773.53
2023-05-18T16:45:29.706Z,102759.38
2023-05-18T16:47:58.211Z,102776.16
2023-05-18T16:50:29.327Z,102769.13
2023-05-18T16:52:58.066Z,102773.59
2023-05-18T16:55:26.712Z,102788.66
2023-05-18T16:57:55.106Z,102782.41
2023-05-18T17:00:23.584Z,102789.44
2023-05-18T17:02:53.231Z,102785.91
2023-05-18T17:05:23.228Z,102785.75
2023-05-18T17:07:54.015Z,102789.19
2023-05-18T17:10:22.191Z,102784.84
2023-05-18T17:12:50.612Z,102790.16
2023-05-18T17:15:19.106Z,102789.13
2023-05-18T17:17:47.284Z,102786.50
2023-05-18T17:20:17.845Z,102789.16
2023-05-18T17:22:46.695Z,102783.94
2023-05-18T17:25:16.805Z,102785.84
2023-05-18T17:27:48.106Z,102783.94
2023-05-18T17:30:16.859Z,102787.41
2023-05-18T17:32:45.656Z,102792.72
2023-05-18T17:35:14.607Z,102790.91
2023-05-18T17:37:42.895Z,102788.25
2023-05-18T17:40:11.799Z,102806.66
2023-05-18T17:42:41.459Z,102805.03
2023-05-18T17:45:10.919Z,102802.22
2023-05-18T17:47:41.784Z,102806.66
2023-05-18T17:50:10.569Z,102818.00
2023-05-18T17:52:38.663Z,102818.09
2023-05-18T17:55:10.643Z,102818.94
2023-05-18T17:57:45.349Z,102813.75
2023-05-18T18:00:15.956Z,102817.31
2023-05-18T18:02:44.336Z,102811.97
2023-05-18T18:05:13.127Z,102815.44
2023-05-18T18:07:41.354Z,102818.97
2023-05-18T18:10:10.409Z,102817.06
2023-05-18T18:12:38.956Z,102798.44
2023-05-18T18:15:09.971Z,102788.59
2023-05-18T18:17:39.313Z,102820.81
2023-05-18T18:20:09.831Z,102819.13
2023-05-18T18:22:38.488Z,102821.88
2023-05-18T18:25:07.386Z,102826.19
2023-05-18T18:27:35.712Z,102801.22
2023-05-18T18:30:04.716Z,102820.66
2023-05-18T18:32:34.445Z,102823.53
2023-05-18T18:35:02.634Z,102820.97
2023-05-18T18:37:31.071Z,102819.28
2023-05-18T18:40:01.681Z,102821.03
2023-05-18T18:42:29.840Z,102813.97
2023-05-18T18:44:58.511Z,102813.09
2023-05-18T18:47:26.841Z,102821.06
2023-05-18T18:49:56.719Z,102828.13
2023-05-18T18:52:25.187Z,102818.38
2023-05-18T18:54:53.739Z,102829.88
2023-05-18T18:57:22.138Z,102819.22
2023-05-18T18:59:50.868Z,102826.34
2023-05-18T19:02:19.780Z,102813.88
2023-05-18T19:04:48.383Z,102840.28
2023-05-18T19:07:17.900Z,102830.53
2023-05-18T19:09:46.288Z,102833.88
2023-05-18T19:12:14.683Z,102837.38
2023-05-18T19:14:43.140Z,102834.78
2023-05-18T19:17:11.761Z,102812.53
2023-05-18T19:19:40.410Z,102841.56
2023-05-18T19:22:09.526Z,102837.94
2023-05-18T19:24:40.119Z,102843.34
2023-05-18T19:27:08.282Z,102844.22
2023-05-18T19:29:37.653Z,102843.22
2023-05-18T19:32:07.258Z,102846.50
2023-05-18T19:34:35.723Z,102848.44
2023-05-18T19:37:05.237Z,102846.72
2023-05-18T19:39:33.756Z,102834.06
2023-05-18T19:42:03.661Z,102853.59
2023-05-18T19:44:32.375Z,102853.41
2023-05-18T19:47:01.825Z,102844.47
2023-05-18T19:49:31.377Z,102855.13
2023-05-18T19:51:59.772Z,102861.47
2023-05-18T19:54:28.496Z,102869.50
2023-05-18T19:56:57.012Z,102864.16
2023-05-18T19:59:26.596Z,102871.47
2023-05-18T20:01:56.532Z,102883.84
2023-05-18T20:04:25.224Z,102877.56
2023-05-18T20:06:53.556Z,102875.88
2023-05-18T20:09:23.169Z,102881.88
2023-05-18T20:11:51.660Z,102878.41
2023-05-18T20:14:19.760Z,102883.03
2023-05-18T20:16:50.127Z,102882.13
2023-05-18T20:19:18.864Z,102883.03
2023-05-18T20:21:48.899Z,102887.31
2023-05-18T20:24:17.475Z,102886.13
2023-05-18T20:26:45.976Z,102887.13
2023-05-18T20:29:14.118Z,102892.31
2023-05-18T20:31:42.775Z,102893.22
2023-05-18T20:34:12.374Z,102887.13
2023-05-18T20:36:40.701Z,102879.94
2023-05-18T20:39:09.286Z,102892.22
2023-05-18T20:41:41.197Z,102888.63
2023-05-18T20:44:11.322Z,102890.63
2023-05-18T20:46:43.295Z,102896.06
2023-05-18T20:49:13.541Z,102891.63
2023-05-18T20:51:41.697Z,102892.38
2023-05-18T20:54:10.128Z,102899.44
2023-05-18T20:56:38.796Z,102874.47
2023-05-18T20:59:06.970Z,102902.84
2023-05-18T21:01:39.475Z,102905.38
2023-05-18T21:04:10.284Z,102910.72
2023-05-18T21:06:44.205Z,102893.38
2023-05-18T21:09:12.638Z,102900.44
2023-05-18T21:11:41.368Z,102907.19
2023-05-18T21:14:11.708Z,102905.28
2023-05-18T21:16:40.606Z,102911.56
2023-05-18T21:19:11.064Z,102909.81
2023-05-18T21:21:39.495Z,102904.69
2023-05-18T21:24:09.350Z,102911.91
2023-05-18T21:26:37.482Z,102908.41
2023-05-18T21:29:06.306Z,102909.22
2023-05-18T21:31:34.666Z,102889.53
2023-05-18T21:34:03.076Z,102905.56
2023-05-18T21:36:34.835Z,102907.97
2023-05-18T21:39:04.114Z,102904.31
2023-05-18T21:41:39.047Z,102921.78
2023-05-18T21:44:07.976Z,102915.34
2023-05-18T21:46:36.988Z,102910.69
2023-05-18T21:49:08.562Z,102910.56
2023-05-18T21:51:37.251Z,102891.00
2023-05-18T21:54:05.768Z,102912.41
2023-05-18T21:56:36.929Z,102912.41
2023-05-18T21:59:05.374Z,102909.78
2023-05-18T22:01:33.624Z,102905.19
2023-05-18T22:04:02.246Z,102907.72
2023-05-18T22:06:31.731Z,102919.13
2023-05-18T22:08:59.862Z,102906.75
2023-05-18T22:11:28.068Z,102909.22
2023-05-18T22:13:57.805Z,102915.47
2023-05-18T22:16:27.004Z,102911.94
2023-05-18T22:18:55.252Z,102911.91
2023-05-18T22:21:23.952Z,102906.56
2023-05-18T22:23:52.805Z,102910.03
2023-05-18T22:26:21.539Z,102909.00
2023-05-18T22:28:49.832Z,102909.63
2023-05-18T22:31:20.436Z,102918.25
2023-05-18T22:33:48.640Z,102907.69
2023-05-18T22:36:18.807Z,102908.63
2023-05-18T22:38:47.030Z,102908.72
2023-05-18T22:41:18.838Z,102884.75
2023-05-18T22:43:47.007Z,102905.91
2023-05-18T22:46:16.450Z,102905.84
2023-05-18T22:48:46.548Z,102903.00
2023-05-18T22:51:15.867Z,102910.94
2023-05-18T22:53:44.172Z,102907.44
2023-05-18T22:56:12.680Z,102908.34
2023-05-18T22:58:41.024Z,102909.28
2023-05-18T23:01:09.409Z,102907.59
2023-05-18T23:03:37.667Z,102907.38
2023-05-18T23:06:07.685Z,102899.38
2023-05-18T23:08:40.478Z,102912.50
2023-05-18T23:11:08.952Z,102910.78
2023-05-18T23:13:38.001Z,102907.16
2023-05-18T23:16:10.692Z,102903.53
2023-05-18T23:18:39.219Z,102905.41
2023-05-18T23:21:09.324Z,102898.41
2023-05-18T23:23:38.035Z,102908.13
2023-05-18T23:26:06.641Z,102908.06
2023-05-18T23:28:34.742Z,102912.44
2023-05-18T23:31:02.952Z,102911.59
2023-05-18T23:33:34.626Z,102887.41
2023-05-18T23:36:04.281Z,102910.78
2023-05-18T23:38:38.165Z,102907.06
2023-05-18T23:41:07.813Z,102912.28
2023-05-18T23:43:36.623Z,102917.38
2023-05-18T23:46:06.460Z,102916.56
2023-05-18T23:48:35.872Z,102908.47
2023-05-18T23:51:04.831Z,102920.84
2023-05-18T23:53:36.376Z,102923.75
2023-05-18T23:56:09.346Z,102915.63
2023-05-18T23:58:38.529Z,102887.25
